Time;durP1;ratioP1;P1;durP2;ratioP2;P2;SDS_P1;SDS_P2;PMS_P1;PMS_P2;Temp;Humidity;BMP_temperature;BMP_pressure;BME280_temperature;BME280_humidity;BME280_pressure;Samples;Min_cycle;Max_cycle;Signal;HPM_P1;HPM_P2
2021/04/30 00:00:59;;;;;;;9.18;7.72;;;;;;;11.77;79.52;98344.30;1695291;83;21152;-56
2021/04/30 00:03:27;;;;;;;8.25;7.05;;;;;;;11.75;79.68;98339.20;1696865;83;21210;-55
2021/04/30 00:05:54;;;;;;;9.63;8.65;;;;;;;11.75;79.78;98341.03;1717028;83;21499;-56
2021/04/30 00:08:22;;;;;;;8.43;7.62;;;;;;;11.73;79.98;98344.42;1695742;83;21124;-58
2021/04/30 00:10:50;;;;;;;9.05;8.23;;;;;;;11.72;80.03;98348.10;1707259;83;21069;-60
2021/04/30 00:13:17;;;;;;;9.48;8.58;;;;;;;11.68;80.25;98341.02;1714215;83;21192;-56
2021/04/30 00:15:45;;;;;;;11.00;8.05;;;;;;;11.63;80.28;98340.78;1688391;83;21381;-57
2021/04/30 00:18:13;;;;;;;8.43;7.35;;;;;;;11.61;80.49;98340.67;1688250;83;21184;-62
2021/04/30 00:20:47;;;;;;;9.33;7.75;;;;;;;11.58;80.53;98343.74;1690072;83;21236;-57
2021/04/30 00:23:12;;;;;;;9.15;8.20;;;;;;;11.56;80.70;98338.63;1716095;83;21179;-57
2021/04/30 00:25:40;;;;;;;9.63;8.68;;;;;;;11.55;80.85;98340.98;1714333;83;21058;-57
2021/04/30 00:28:08;;;;;;;9.13;8.10;;;;;;;11.53;80.92;98345.69;1700274;83;21397;-57
2021/04/30 00:30:35;;;;;;;9.20;8.13;;;;;;;11.50;81.01;98342.10;1715083;83;21093;-56
2021/04/30 00:33:03;;;;;;;9.48;8.53;;;;;;;11.48;81.10;98342.00;1692838;83;21606;-56
2021/04/30 00:35:30;;;;;;;8.78;8.00;;;;;;;11.45;81.23;98336.56;1671818;84;21337;-56
2021/04/30 00:37:58;;;;;;;9.08;8.15;;;;;;;11.44;81.36;98342.11;1678546;84;21030;-57
2021/04/30 00:40:28;;;;;;;11.08;7.87;;;;;;;11.43;81.53;98336.46;1684865;84;21216;-56
2021/04/30 00:42:56;;;;;;;8.65;7.80;;;;;;;11.42;81.62;98346.28;1679372;84;21114;-56
2021/04/30 00:45:24;;;;;;;12.35;8.63;;;;;;;11.39;81.80;98342.72;1685624;84;21030;-57
2021/04/30 00:47:52;;;;;;;10.20;8.78;;;;;;;11.38;81.92;98337.58;1674785;84;21904;-59
2021/04/30 00:50:23;;;;;;;10.18;8.38;;;;;;;11.35;82.03;98341.98;1687642;84;21174;-57
2021/04/30 00:52:51;;;;;;;12.75;8.70;;;;;;;11.32;82.20;98342.38;1675465;84;21370;-59
2021/04/30 00:55:19;;;;;;;12.80;8.10;;;;;;;11.29;82.35;98344.93;1688839;84;21636;-57
2021/04/30 00:57:51;;;;;;;8.93;7.92;;;;;;;11.29;82.50;98340.14;1691901;84;21145;-59
2021/04/30 01:00:20;;;;;;;11.53;8.63;;;;;;;11.27;82.63;98340.83;1671620;84;20955;-59
2021/04/30 01:02:47;;;;;;;13.90;9.25;;;;;;;11.27;82.75;98338.17;1692991;84;21105;-58
2021/04/30 01:05:16;;;;;;;13.98;9.25;;;;;;;11.25;82.96;98336.23;1680405;84;21283;-56
2021/04/30 01:07:44;;;;;;;12.60;8.28;;;;;;;11.22;83.05;98335.30;1682821;84;21170;-58
2021/04/30 01:10:12;;;;;;;18.50;8.88;;;;;;;11.20;83.12;98336.84;1682535;84;21162;-57
2021/04/30 01:12:40;;;;;;;13.85;8.48;;;;;;;11.20;83.23;98338.67;1673109;84;21164;-60
2021/04/30 01:15:09;;;;;;;12.37;9.08;;;;;;;11.20;83.30;98340.83;1671906;84;21167;-58
2021/04/30 01:17:37;;;;;;;16.20;8.80;;;;;;;11.20;83.34;98338.17;1671353;84;21322;-56
2021/04/30 01:20:07;;;;;;;12.07;9.33;;;;;;;11.21;83.42;98338.46;1674702;84;21118;-57
2021/04/30 01:22:50;;;;;;;10.45;9.13;;;;;;;11.20;83.53;98338.67;1689316;84;21121;-58
2021/04/30 01:25:24;;;;;;;10.32;8.35;;;;;;;11.18;83.59;98336.73;1685523;84;21555;-57
2021/04/30 01:27:52;;;;;;;10.98;8.38;;;;;;;11.14;83.71;98338.46;1691937;84;21159;-57
2021/04/30 01:30:25;;;;;;;11.10;8.70;;;;;;;11.13;83.87;98340.00;1688916;84;22306;-56
2021/04/30 01:32:53;;;;;;;9.78;8.55;;;;;;;11.12;84.04;98337.02;1679616;84;21583;-61
2021/04/30 01:35:34;;;;;;;12.93;8.90;;;;;;;11.11;84.16;98328.72;1683874;84;21072;-61
2021/04/30 01:38:03;;;;;;;13.40;9.25;;;;;;;11.08;84.28;98324.62;1692008;84;21162;-60
2021/04/30 01:40:33;;;;;;;10.68;9.05;;;;;;;11.08;84.36;98324.62;1672822;84;21173;-56
2021/04/30 01:43:09;;;;;;;13.15;8.58;;;;;;;11.06;84.46;98325.33;1668941;84;21283;-57
2021/04/30 01:45:59;;;;;;;10.23;8.88;;;;;;;11.07;84.54;98330.98;1684212;84;21105;-56
2021/04/30 01:48:29;;;;;;;16.23;9.28;;;;;;;11.07;84.61;98330.98;1689604;84;21095;-58
2021/04/30 01:50:58;;;;;;;15.25;8.93;;;;;;;11.08;84.66;98333.93;1683371;84;21229;-56
2021/04/30 01:53:28;;;;;;;12.55;9.58;;;;;;;11.08;84.69;98327.78;1672105;84;21063;-55
2021/04/30 01:55:56;;;;;;;11.12;9.85;;;;;;;11.08;84.73;98327.78;1690740;84;21373;-56
2021/04/30 01:58:23;;;;;;;10.30;8.68;;;;;;;11.07;84.73;98319.51;1680394;84;21030;-57
2021/04/30 02:00:53;;;;;;;15.50;9.40;;;;;;;11.05;84.82;98323.68;1683706;84;21173;-59
2021/04/30 02:03:20;;;;;;;12.65;8.93;;;;;;;11.05;84.97;98313.03;1690923;84;21646;-56
2021/04/30 02:05:48;;;;;;;13.08;9.08;;;;;;;11.03;85.07;98307.61;1686822;84;21078;-57
2021/04/30 02:08:16;;;;;;;12.35;8.65;;;;;;;11.03;85.11;98310.27;1680330;84;21418;-56
2021/04/30 02:10:44;;;;;;;14.87;9.53;;;;;;;11.01;85.14;98305.16;1690651;84;21224;-56
2021/04/30 02:13:13;;;;;;;12.07;9.55;;;;;;;11.01;85.16;98301.67;1687679;84;21149;-58
2021/04/30 02:15:42;;;;;;;10.03;8.55;;;;;;;11.00;85.24;98306.17;1682930;84;21073;-56
2021/04/30 02:18:10;;;;;;;10.28;9.20;;;;;;;10.97;85.32;98303.94;1680248;84;21087;-56
2021/04/30 02:20:37;;;;;;;13.13;9.10;;;;;;;10.97;85.43;98299.94;1674159;84;22173;-57
2021/04/30 02:23:05;;;;;;;10.90;8.25;;;;;;;10.97;85.50;98299.12;1688179;84;21178;-59
2021/04/30 02:25:33;;;;;;;9.73;8.73;;;;;;;10.95;85.56;98297.17;1692042;84;21026;-57
2021/04/30 02:28:01;;;;;;;14.03;9.95;;;;;;;10.93;85.69;98303.19;1672189;84;21186;-57
2021/04/30 02:30:32;;;;;;;14.83;9.50;;;;;;;10.90;85.78;98303.08;1668102;84;21119;-56
2021/04/30 02:32:59;;;;;;;11.20;9.30;;;;;;;10.88;85.83;98295.81;1687282;84;22308;-57
2021/04/30 02:35:31;;;;;;;14.38;9.55;;;;;;;10.88;85.94;98295.81;1684602;84;21077;-57
2021/04/30 02:37:58;;;;;;;13.03;9.08;;;;;;;10.89;86.03;98296.13;1670303;84;21072;-57
2021/04/30 02:40:28;;;;;;;10.18;9.05;;;;;;;10.91;86.07;98297.25;1682772;84;21090;-57
2021/04/30 02:43:01;;;;;;;11.68;9.63;;;;;;;10.91;86.09;98298.08;1696952;83;21507;-56
2021/04/30 02:45:28;;;;;;;12.07;10.10;;;;;;;10.91;86.15;98303.91;1717200;83;22382;-59
2021/04/30 02:47:56;;;;;;;13.15;11.75;;;;;;;10.89;86.24;98308.61;1696795;83;21085;-60
2021/04/30 02:50:26;;;;;;;14.23;11.88;;;;;;;10.87;86.36;98311.45;1716278;83;21551;-57
2021/04/30 02:52:54;;;;;;;20.20;13.43;;;;;;;10.88;86.43;98309.62;1690462;83;21154;-62
2021/04/30 02:55:24;;;;;;;20.12;14.33;;;;;;;10.88;86.51;98311.77;1705008;83;21178;-62
2021/04/30 02:57:53;;;;;;;18.77;14.30;;;;;;;10.89;86.53;98304.62;1708632;83;21200;-59
2021/04/30 03:00:22;;;;;;;19.62;12.43;;;;;;;10.89;86.54;98304.62;1689338;83;21127;-57
2021/04/30 03:02:49;;;;;;;14.98;11.60;;;;;;;10.88;86.60;98308.29;1694782;83;21481;-61
2021/04/30 03:05:17;;;;;;;19.52;11.70;;;;;;;10.88;86.67;98313.61;1697290;83;21073;-60
2021/04/30 03:07:45;;;;;;;14.00;11.10;;;;;;;10.88;86.72;98313.11;1699238;83;21168;-58
2021/04/30 03:10:12;;;;;;;16.30;11.50;;;;;;;10.89;86.80;98311.27;1697984;83;21340;-62
2021/04/30 03:12:40;;;;;;;15.38;11.65;;;;;;;10.90;86.85;98318.22;1688404;83;21536;-60
2021/04/30 03:15:12;;;;;;;15.05;12.00;;;;;;;10.91;86.82;98314.55;1693046;83;20947;-58
2021/04/30 03:17:39;;;;;;;14.98;11.12;;;;;;;10.91;86.81;98319.36;1702830;83;21075;-60
2021/04/30 03:20:08;;;;;;;11.53;10.23;;;;;;;10.91;86.79;98313.22;1688972;83;21790;-59
2021/04/30 03:22:35;;;;;;;11.38;9.98;;;;;;;10.91;86.80;98322.53;1716520;83;21214;-57
2021/04/30 03:25:06;;;;;;;10.80;8.78;;;;;;;10.91;86.81;98314.04;1701467;83;21141;-59
2021/04/30 03:27:34;;;;;;;11.50;8.40;;;;;;;10.92;86.81;98311.67;1708584;83;21095;-62
2021/04/30 03:30:02;;;;;;;18.42;10.35;;;;;;;10.95;86.83;98310.48;1689875;83;21132;-59
2021/04/30 03:32:29;;;;;;;14.75;10.68;;;;;;;10.96;86.80;98314.77;1688346;83;21167;-57
2021/04/30 03:34:57;;;;;;;14.65;11.10;;;;;;;10.97;86.74;98315.09;1688328;83;21364;-56
2021/04/30 03:37:24;;;;;;;15.10;9.70;;;;;;;10.99;86.68;98314.36;1691564;83;21147;-57
2021/04/30 03:39:51;;;;;;;14.75;10.08;;;;;;;10.99;86.66;98311.70;1689357;83;21579;-58
2021/04/30 03:42:19;;;;;;;18.10;10.10;;;;;;;11.02;86.67;98312.64;1669111;84;21147;-57
2021/04/30 03:44:46;;;;;;;15.60;10.03;;;;;;;11.04;86.64;98315.91;1681780;84;21070;-56
2021/04/30 03:47:14;;;;;;;10.72;9.63;;;;;;;11.08;86.57;98315.30;1690428;83;22368;-56
2021/04/30 03:49:44;;;;;;;14.30;9.38;;;;;;;11.11;86.50;98318.89;1710966;83;21156;-55
2021/04/30 03:52:12;;;;;;;19.30;9.95;;;;;;;11.14;86.39;98320.34;1686521;83;21619;-57
2021/04/30 03:54:39;;;;;;;23.02;9.95;;;;;;;11.19;86.25;98324.54;1683812;83;21149;-56
2021/04/30 03:57:07;;;;;;;17.17;9.35;;;;;;;11.24;86.10;98327.95;1683324;83;21145;-61
2021/04/30 03:59:37;;;;;;;11.90;9.63;;;;;;;11.29;85.97;98329.49;1707804;82;21577;-61
2021/04/30 04:02:05;;;;;;;13.50;9.30;;;;;;;11.34;85.86;98329.70;1685199;83;21172;-55
2021/04/30 04:04:33;;;;;;;16.77;9.50;;;;;;;11.40;85.65;98330.20;1704145;83;21022;-55
2021/04/30 04:07:01;;;;;;;15.53;9.68;;;;;;;11.48;85.39;98330.02;1707510;83;21723;-55
2021/04/30 04:09:29;;;;;;;13.80;9.75;;;;;;;11.55;85.08;98326.87;1687535;83;21097;-59
2021/04/30 04:11:56;;;;;;;12.63;10.15;;;;;;;11.62;84.77;98324.51;1688616;83;21345;-55
2021/04/30 04:14:24;;;;;;;16.35;9.75;;;;;;;11.72;84.45;98324.13;1690150;83;21044;-56
2021/04/30 04:16:51;;;;;;;15.03;9.38;;;;;;;11.85;84.06;98330.78;1705597;83;21197;-56
2021/04/30 04:19:19;;;;;;;13.20;9.20;;;;;;;12.00;83.58;98323.38;1682633;83;21175;-60
2021/04/30 04:21:47;;;;;;;16.87;9.58;;;;;;;12.16;83.01;98322.95;1685953;83;21157;-56
2021/04/30 04:24:14;;;;;;;14.65;9.35;;;;;;;12.38;82.31;98326.20;1690096;83;22271;-57
2021/04/30 04:26:41;;;;;;;14.90;10.55;;;;;;;12.60;81.35;98320.88;1697005;83;21034;-57
2021/04/30 04:29:09;;;;;;;12.55;9.55;;;;;;;12.73;80.57;98326.16;1684546;83;21543;-62
2021/04/30 04:31:37;;;;;;;14.03;10.20;;;;;;;12.88;79.99;98324.55;1703829;83;21160;-58
2021/04/30 04:34:05;;;;;;;13.75;10.88;;;;;;;13.01;79.29;98325.31;1667459;84;21237;-57
2021/04/30 04:36:33;;;;;;;22.30;13.03;;;;;;;13.18;78.62;98322.17;1672782;84;22755;-60
2021/04/30 04:39:00;;;;;;;18.73;12.73;;;;;;;13.36;77.84;98327.09;1673071;84;21264;-59
2021/04/30 04:41:28;;;;;;;21.75;13.55;;;;;;;13.52;76.93;98327.09;1659974;84;21023;-57
2021/04/30 04:43:55;;;;;;;15.40;13.08;;;;;;;13.62;76.23;98328.77;1681284;84;21245;-57
2021/04/30 04:46:23;;;;;;;13.85;12.45;;;;;;;13.74;75.66;98336.37;1672965;84;21133;-56
2021/04/30 04:48:50;;;;;;;15.75;10.68;;;;;;;13.93;75.07;98335.91;1677920;83;22127;-57
2021/04/30 04:51:18;;;;;;;13.90;11.73;;;;;;;14.11;74.26;98333.28;1671256;84;21660;-56
2021/04/30 04:53:46;;;;;;;16.60;12.23;;;;;;;14.29;73.60;98335.98;1693983;84;20967;-57
2021/04/30 04:56:16;;;;;;;15.15;11.15;;;;;;;14.49;72.88;98329.13;1673592;84;21111;-57
2021/04/30 04:58:44;;;;;;;14.05;11.08;;;;;;;14.60;72.17;98327.06;1681385;84;21565;-56
2021/04/30 05:01:13;;;;;;;13.08;11.20;;;;;;;14.64;71.81;98319.69;1670867;84;21019;-56
2021/04/30 05:03:41;;;;;;;17.45;11.08;;;;;;;14.89;71.26;98322.80;1674288;84;21059;-56
2021/04/30 05:06:09;;;;;;;15.30;11.20;;;;;;;15.25;70.43;98324.06;1692578;84;21051;-60
2021/04/30 05:08:36;;;;;;;14.03;10.93;;;;;;;15.69;69.27;98322.80;1672826;84;21567;-57
2021/04/30 05:11:04;;;;;;;12.00;10.35;;;;;;;16.17;67.73;98315.89;1688215;84;21078;-57
2021/04/30 05:13:32;;;;;;;11.73;10.45;;;;;;;16.63;66.31;98316.68;1664551;84;21351;-57
2021/04/30 05:16:01;;;;;;;16.57;10.50;;;;;;;17.04;64.62;98316.99;1664510;84;21107;-58
2021/04/30 05:18:29;;;;;;;13.88;10.75;;;;;;;17.32;63.16;98313.48;1667686;84;20908;-57
2021/04/30 05:20:56;;;;;;;17.87;12.65;;;;;;;17.55;62.58;98308.00;1673968;84;21890;-57
2021/04/30 05:23:24;;;;;;;18.23;13.20;;;;;;;17.93;61.31;98307.30;1666643;86;21178;-59
2021/04/30 05:25:53;;;;;;;12.60;10.30;;;;;;;18.24;60.42;98304.53;1684289;84;21210;-57
2021/04/30 05:28:21;;;;;;;10.30;9.30;;;;;;;18.62;59.50;98299.68;1678440;84;21205;-58
2021/04/30 05:30:48;;;;;;;13.78;9.78;;;;;;;19.06;58.25;98297.25;1689883;83;21078;-59
2021/04/30 05:33:16;;;;;;;15.53;9.50;;;;;;;19.45;57.13;98299.33;1664602;84;21137;-60
2021/04/30 05:35:43;;;;;;;9.38;8.33;;;;;;;19.85;56.28;98298.31;1652416;84;21790;-59
2021/04/30 05:38:11;;;;;;;8.95;7.90;;;;;;;20.33;54.55;98302.75;1682738;84;22473;-57
2021/04/30 05:40:38;;;;;;;7.80;7.12;;;;;;;20.60;53.51;98299.37;1683061;84;21138;-61
2021/04/30 05:43:06;;;;;;;9.05;7.67;;;;;;;20.77;52.69;98297.30;1674007;84;21133;-57
2021/04/30 05:45:33;;;;;;;10.13;6.97;;;;;;;20.93;52.05;98287.36;1687429;84;21155;-59
2021/04/30 05:48:01;;;;;;;9.53;7.33;;;;;;;21.09;51.51;98290.39;1669675;84;21211;-61
2021/04/30 05:50:28;;;;;;;10.98;7.80;;;;;;;21.24;51.15;98282.88;1680588;84;21440;-58
2021/04/30 05:52:56;;;;;;;12.95;7.70;;;;;;;21.39;50.68;98285.60;1665719;84;21194;-63
2021/04/30 05:55:23;;;;;;;9.83;8.13;;;;;;;21.49;50.19;98284.26;1676795;84;21591;-62
2021/04/30 05:57:50;;;;;;;10.20;9.08;;;;;;;21.64;49.95;98282.91;1691594;84;21496;-57
2021/04/30 06:00:19;;;;;;;19.30;11.25;;;;;;;21.83;49.47;98283.19;1677572;84;21193;-57
2021/04/30 06:02:46;;;;;;;13.25;9.08;;;;;;;21.89;49.08;98280.26;1690659;84;21351;-57
2021/04/30 06:05:14;;;;;;;11.88;8.45;;;;;;;22.00;49.05;98283.77;1692547;84;21197;-56
2021/04/30 06:07:42;;;;;;;11.65;9.38;;;;;;;22.18;48.81;98285.91;1675467;84;21495;-59
2021/04/30 06:10:10;;;;;;;9.98;8.65;;;;;;;22.46;48.21;98280.42;1672016;84;21162;-59
2021/04/30 06:12:41;;;;;;;9.08;8.18;;;;;;;22.59;47.78;98282.55;1675054;84;21122;-60
2021/04/30 06:15:10;;;;;;;11.22;8.73;;;;;;;22.77;47.37;98283.33;1629133;87;21245;-63
2021/04/30 06:17:38;;;;;;;11.60;8.53;;;;;;;22.92;47.25;98278.37;1666935;84;21169;-59
2021/04/30 06:20:08;;;;;;;9.58;8.65;;;;;;;23.03;46.81;98271.81;1667954;84;21144;-61
2021/04/30 06:22:35;;;;;;;8.05;6.80;;;;;;;23.13;46.88;98267.15;1669380;84;21655;-62
2021/04/30 06:25:05;;;;;;;12.47;8.13;;;;;;;23.43;46.15;98266.73;1692581;84;21588;-63
2021/04/30 06:27:32;;;;;;;9.50;7.12;;;;;;;23.73;45.34;98261.06;1666969;84;22148;-60
2021/04/30 06:30:00;;;;;;;7.70;5.72;;;;;;;24.00;44.82;98260.56;1677286;84;20979;-62
2021/04/30 06:32:27;;;;;;;5.15;4.75;;;;;;;24.14;43.81;98263.73;1671988;84;20975;-60
2021/04/30 06:34:55;;;;;;;5.15;4.72;;;;;;;24.07;43.48;98260.48;1675864;84;21105;-60
2021/04/30 06:37:26;;;;;;;5.95;5.37;;;;;;;24.05;43.39;98261.33;1676422;83;21786;-61
2021/04/30 06:39:55;;;;;;;7.72;5.08;;;;;;;24.12;43.11;98269.16;1696248;84;21231;-62
2021/04/30 06:42:22;;;;;;;6.00;5.47;;;;;;;24.11;42.98;98268.37;1693184;84;21172;-61
2021/04/30 06:44:52;;;;;;;4.92;4.50;;;;;;;24.17;42.93;98274.00;1683385;84;21657;-66
2021/04/30 06:47:20;;;;;;;6.03;5.22;;;;;;;24.28;42.77;98263.29;1698399;84;21140;-64
2021/04/30 06:49:47;;;;;;;5.85;5.30;;;;;;;24.40;42.50;98267.77;1679429;84;21120;-64
2021/04/30 06:52:15;;;;;;;6.72;5.45;;;;;;;24.49;42.27;98261.98;1687085;84;21351;-60
2021/04/30 06:54:42;;;;;;;7.50;5.42;;;;;;;24.60;42.09;98265.94;1698622;84;21034;-62
2021/04/30 06:57:09;;;;;;;6.08;5.50;;;;;;;24.61;42.37;98264.30;1698438;84;21133;-61
2021/04/30 06:59:37;;;;;;;7.30;4.72;;;;;;;24.77;42.06;98262.20;1688466;84;21208;-66
2021/04/30 07:02:05;;;;;;;5.47;4.97;;;;;;;24.99;41.53;98256.50;1681317;84;21153;-65
2021/04/30 07:04:33;;;;;;;4.55;4.15;;;;;;;25.09;41.11;98256.35;1698262;84;21546;-61
2021/04/30 07:07:01;;;;;;;3.85;3.52;;;;;;;25.10;40.94;98251.73;1699225;84;21195;-62
2021/04/30 07:09:28;;;;;;;4.62;3.77;;;;;;;25.23;41.09;98249.64;1699125;84;21163;-61
2021/04/30 07:11:55;;;;;;;5.40;3.30;;;;;;;25.52;40.49;98247.59;1698553;83;21129;-61
2021/04/30 07:14:23;;;;;;;3.42;3.10;;;;;;;25.84;39.61;98244.05;1700532;83;21133;-61
2021/04/30 07:16:52;;;;;;;6.25;2.98;;;;;;;26.01;38.88;98249.77;1699892;83;21196;-64
2021/04/30 07:19:20;;;;;;;7.17;2.95;;;;;;;26.12;38.74;98246.30;1698359;84;21156;-59
2021/04/30 07:21:48;;;;;;;3.30;3.00;;;;;;;26.29;38.22;98250.64;1698383;84;21068;-61
2021/04/30 07:24:15;;;;;;;7.47;2.55;;;;;;;26.53;37.87;98240.36;1698373;84;21035;-66
2021/04/30 07:26:43;;;;;;;4.05;2.70;;;;;;;26.75;37.23;98244.53;1698571;84;21144;-60
2021/04/30 07:29:11;;;;;;;5.05;2.75;;;;;;;26.79;36.77;98238.77;1698329;84;22177;-60
2021/04/30 07:31:39;;;;;;;3.67;2.67;;;;;;;26.86;36.64;98246.52;1697971;84;21026;-61
2021/04/30 07:34:08;;;;;;;4.05;2.80;;;;;;;26.97;36.17;98243.84;1695850;83;21121;-61
2021/04/30 07:36:36;;;;;;;6.87;2.75;;;;;;;26.98;35.91;98243.52;1699633;84;21150;-61
2021/04/30 07:39:05;;;;;;;4.90;3.17;;;;;;;26.91;36.09;98237.67;1707990;83;21185;-64
2021/04/30 07:41:32;;;;;;;4.60;2.60;;;;;;;27.05;36.14;98240.94;1702999;83;21354;-62
2021/04/30 07:44:00;;;;;;;2.12;1.92;;;;;;;27.20;35.52;98237.31;1702271;83;21032;-63
2021/04/30 07:46:27;;;;;;;3.25;1.90;;;;;;;27.39;34.94;98233.05;1685012;83;21166;-63
2021/04/30 07:48:55;;;;;;;3.30;2.12;;;;;;;27.50;34.84;98236.64;1700262;83;21089;-61
2021/04/30 07:51:23;;;;;;;2.50;2.27;;;;;;;27.70;34.70;98227.14;1686978;83;21215;-61
2021/04/30 07:53:51;;;;;;;2.15;1.98;;;;;;;27.83;34.33;98234.45;1693378;83;21406;-59
2021/04/30 07:56:19;;;;;;;2.67;1.98;;;;;;;28.02;33.79;98237.83;1707810;83;21094;-59
2021/04/30 07:58:46;;;;;;;2.50;2.30;;;;;;;28.07;33.48;98243.16;1704187;83;21073;-59
2021/04/30 08:01:16;;;;;;;2.20;2.00;;;;;;;28.10;33.50;98240.36;1696586;82;21101;-61
2021/04/30 08:03:44;;;;;;;2.05;1.95;;;;;;;28.13;33.41;98241.89;1666014;84;21153;-60
2021/04/30 08:06:11;;;;;;;4.85;2.15;;;;;;;28.34;33.05;98245.47;1686933;84;21476;-59
2021/04/30 08:08:40;;;;;;;1.72;1.62;;;;;;;28.52;32.71;98253.98;1712422;83;21587;-64
2021/04/30 08:11:08;;;;;;;1.62;1.50;;;;;;;28.62;32.15;98253.73;1712452;83;21245;-59
2021/04/30 08:13:35;;;;;;;5.50;1.92;;;;;;;28.63;31.67;98257.50;1712403;83;21188;-63
2021/04/30 08:16:03;;;;;;;2.85;1.77;;;;;;;28.57;31.69;98260.69;1712272;83;21676;-59
2021/04/30 08:18:31;;;;;;;3.80;1.85;;;;;;;28.34;32.00;98263.24;1697983;83;21385;-60
2021/04/30 08:20:59;;;;;;;3.30;1.80;;;;;;;27.99;32.40;98257.55;1703830;82;20963;-59
2021/04/30 08:23:26;;;;;;;4.47;2.02;;;;;;;27.52;32.89;98256.81;1666395;84;21033;-60
2021/04/30 08:25:54;;;;;;;6.05;1.57;;;;;;;26.86;33.71;98258.25;1672270;84;21149;-61
2021/04/30 08:28:21;;;;;;;4.22;2.05;;;;;;;26.34;34.67;98258.72;1673582;84;21205;-65
2021/04/30 08:30:49;;;;;;;2.40;1.95;;;;;;;26.07;35.36;98260.02;1650788;85;21385;-65
2021/04/30 08:33:17;;;;;;;2.92;1.90;;;;;;;25.94;35.54;98260.80;1712088;83;21144;-61
2021/04/30 08:35:44;;;;;;;7.53;2.30;;;;;;;25.87;35.82;98263.89;1650823;85;21571;-61
2021/04/30 08:38:12;;;;;;;2.83;1.95;;;;;;;25.96;35.84;98254.48;1707737;83;21212;-59
2021/04/30 08:40:40;;;;;;;2.37;2.00;;;;;;;26.07;35.85;98254.58;1688146;83;21049;-60
2021/04/30 08:43:07;;;;;;;2.10;1.90;;;;;;;26.21;35.58;98262.23;1710452;83;21487;-61
2021/04/30 08:45:39;;;;;;;3.27;1.95;;;;;;;26.06;35.41;98257.84;1711772;81;21116;-61
2021/04/30 08:48:13;;;;;;;3.87;2.25;;;;;;;25.70;35.82;98255.47;1717163;83;21085;-63
2021/04/30 08:50:42;;;;;;;6.47;3.15;;;;;;;25.17;36.58;98257.61;1716605;81;21697;-59
2021/04/30 08:53:11;;;;;;;4.42;2.47;;;;;;;24.77;37.62;98254.05;1655040;85;21670;-61
2021/04/30 08:55:39;;;;;;;2.83;2.35;;;;;;;24.56;38.01;98265.69;1717086;83;22174;-59
2021/04/30 08:58:09;;;;;;;2.45;2.25;;;;;;;24.30;38.26;98259.73;1654997;86;21595;-61
2021/04/30 09:00:36;;;;;;;3.02;2.42;;;;;;;24.10;38.67;98260.48;1708544;81;21566;-58
2021/04/30 09:03:04;;;;;;;2.55;2.35;;;;;;;23.84;39.07;98255.81;1699565;81;21144;-66
2021/04/30 09:05:32;;;;;;;2.12;2.02;;;;;;;23.48;40.05;98253.94;1690461;83;21175;-62
2021/04/30 09:08:01;;;;;;;5.00;3.00;;;;;;;22.93;40.93;98257.77;1700574;83;21389;-59
2021/04/30 09:10:38;;;;;;;2.80;2.50;;;;;;;22.60;41.63;98255.16;1695946;81;21161;-62
2021/04/30 09:13:12;;;;;;;2.58;2.37;;;;;;;22.44;42.22;98253.61;1675602;84;21168;-60
2021/04/30 09:15:41;;;;;;;4.47;2.62;;;;;;;22.39;42.43;98252.81;1677232;84;21189;-57
2021/04/30 09:18:18;;;;;;;2.27;2.05;;;;;;;22.42;42.51;98257.12;1657153;85;21133;-62
2021/04/30 09:20:48;;;;;;;5.55;2.50;;;;;;;22.38;42.51;98254.70;1713501;83;21346;-58
2021/04/30 09:23:41;;;;;;;6.83;3.25;;;;;;;22.45;42.44;98262.53;1653030;86;21210;-58
2021/04/30 09:26:31;;;;;;;3.87;2.60;;;;;;;22.61;42.84;98261.39;1674631;84;21544;-61
2021/04/30 09:29:06;;;;;;;3.80;3.20;;;;;;;22.74;42.65;98255.41;1675080;84;21733;-60
2021/04/30 09:31:42;;;;;;;4.23;3.20;;;;;;;22.90;42.68;98254.26;1705401;83;21576;-59
2021/04/30 09:34:31;;;;;;;3.37;2.70;;;;;;;23.06;42.64;98253.63;1697920;83;21422;-58
2021/04/30 09:37:12;;;;;;;2.60;2.40;;;;;;;23.12;42.60;98255.23;1716503;83;21148;-57
2021/04/30 09:39:59;;;;;;;5.10;2.72;;;;;;;23.27;42.23;98251.88;1642368;86;21154;-59
2021/04/30 09:42:29;;;;;;;3.72;2.83;;;;;;;23.87;41.16;98252.53;1659354;86;21660;-58
2021/04/30 09:44:59;;;;;;;2.30;2.10;;;;;;;24.33;40.32;98249.65;1644333;87;21131;-58
2021/04/30 09:47:29;;;;;;;2.25;2.00;;;;;;;24.82;39.67;98244.50;1632801;87;21509;-58
2021/04/30 09:50:00;;;;;;;3.65;2.10;;;;;;;25.61;38.32;98236.27;1654336;86;21233;-58
2021/04/30 09:52:29;;;;;;;2.05;1.80;;;;;;;26.30;37.03;98229.09;1643409;87;21153;-57
2021/04/30 09:55:01;;;;;;;2.33;2.12;;;;;;;26.53;36.33;98232.73;1697036;84;21086;-57
2021/04/30 09:57:27;;;;;;;2.30;1.80;;;;;;;26.47;35.92;98222.48;1696971;84;21090;-59
2021/04/30 10:00:12;;;;;;;2.37;2.17;;;;;;;26.45;35.77;98227.98;1633975;87;21289;-59
2021/04/30 10:02:39;;;;;;;2.20;2.00;;;;;;;26.56;35.57;98227.48;1622109;87;21259;-58
2021/04/30 10:05:13;;;;;;;3.25;2.00;;;;;;;26.83;35.15;98230.75;1634093;87;21098;-62
2021/04/30 10:07:44;;;;;;;2.90;1.90;;;;;;;27.24;34.68;98227.41;1641079;87;21090;-61
2021/04/30 10:10:20;;;;;;;2.37;2.17;;;;;;;27.27;34.57;98223.25;1633403;87;21241;-58
2021/04/30 10:12:49;;;;;;;;;;;;;;;27.22;34.58;98224.73;1624587;87;22321;-58
2021/04/30 10:15:19;;;;;;;2.95;2.60;;;;;;;26.92;34.72;98225.66;1641809;87;20229;-58
2021/04/30 10:17:56;;;;;;;2.52;2.33;;;;;;;26.50;34.93;98227.33;1616171;87;21282;-60
2021/04/30 10:20:24;;;;;;;3.98;1.87;;;;;;;25.90;35.71;98227.06;1644256;87;21583;-58
2021/04/30 10:22:52;;;;;;;4.83;2.33;;;;;;;25.30;36.60;98229.66;1683377;84;21205;-60
2021/04/30 10:25:20;;;;;;;3.12;2.60;;;;;;;24.84;37.46;98227.33;1656113;84;21348;-58
2021/04/30 10:27:53;;;;;;;2.95;2.40;;;;;;;24.44;38.21;98240.29;1688671;84;21181;-62
2021/04/30 10:30:27;;;;;;;3.15;2.22;;;;;;;23.99;38.99;98239.37;1667204;84;21630;-59
2021/04/30 10:33:27;;;;;;;2.40;2.20;;;;;;;23.51;39.87;98233.02;1686409;84;21161;-58
2021/04/30 10:36:14;;;;;;;15.23;3.58;;;;;;;23.04;40.78;98236.30;1675790;84;21547;-57
2021/04/30 10:38:46;;;;;;;6.42;3.20;;;;;;;22.57;43.43;98241.37;1669129;84;21262;-56
2021/04/30 10:41:14;;;;;;;6.83;3.55;;;;;;;22.19;44.91;98246.11;1689220;84;21186;-60
2021/04/30 10:43:42;;;;;;;5.42;2.55;;;;;;;21.88;46.85;98242.08;1676702;84;21231;-58
2021/04/30 10:46:22;;;;;;;4.47;2.30;;;;;;;21.66;47.04;98241.53;1677841;84;20960;-57
2021/04/30 10:49:15;;;;;;;3.12;2.47;;;;;;;21.45;47.15;98242.61;1697206;84;21062;-58
2021/04/30 10:51:41;;;;;;;2.60;2.40;;;;;;;21.26;48.16;98238.25;1686217;84;21326;-59
2021/04/30 10:54:28;;;;;;;4.60;2.42;;;;;;;21.07;48.34;98243.89;1679382;84;20953;-58
2021/04/30 10:57:02;;;;;;;5.55;2.52;;;;;;;20.94;48.98;98249.77;1668057;84;21169;-59
2021/04/30 10:59:45;;;;;;;2.30;2.10;;;;;;;20.90;49.16;98247.34;1687648;84;21662;-57
2021/04/30 11:02:27;;;;;;;4.03;2.12;;;;;;;20.96;48.89;98258.98;1670683;84;21180;-60
2021/04/30 11:05:10;;;;;;;2.98;2.50;;;;;;;21.03;48.43;98248.72;1686766;84;22247;-62
2021/04/30 11:07:52;;;;;;;4.10;2.40;;;;;;;21.06;48.69;98246.84;1685331;84;21070;-61
2021/04/30 11:10:31;;;;;;;8.20;2.40;;;;;;;21.12;48.73;98241.76;1697120;84;21121;-61
2021/04/30 11:13:35;;;;;;;3.27;2.37;;;;;;;21.10;48.54;98256.06;1628532;87;21130;-61
2021/04/30 11:16:03;;;;;;;3.75;3.02;;;;;;;21.07;48.43;98253.89;1714638;82;21089;-61
2021/04/30 11:18:31;;;;;;;3.47;2.10;;;;;;;20.97;48.56;98240.31;1718049;82;21399;-62
2021/04/30 11:21:12;;;;;;;3.70;2.37;;;;;;;20.87;48.62;98242.46;1670541;84;21224;-61
2021/04/30 11:23:46;;;;;;;3.27;2.12;;;;;;;20.81;48.98;98243.52;1657489;86;21225;-62
2021/04/30 11:26:14;;;;;;;3.25;2.12;;;;;;;20.84;49.09;98246.51;1629963;86;21260;-60
2021/04/30 11:28:47;;;;;;;4.22;2.10;;;;;;;20.92;48.96;98243.83;1690706;83;21114;-61
2021/04/30 11:31:25;;;;;;;2.90;2.62;;;;;;;20.96;48.76;98245.47;1717310;82;21381;-62
2021/04/30 11:34:16;;;;;;;3.33;2.67;;;;;;;20.97;48.71;98238.97;1711223;83;21001;-61
2021/04/30 11:37:03;;;;;;;2.87;2.35;;;;;;;20.94;49.18;98240.31;1702210;82;21625;-60
2021/04/30 11:39:47;;;;;;;2.20;2.00;;;;;;;21.06;48.93;98244.14;1696422;82;21148;-63
2021/04/30 11:42:32;;;;;;;4.35;2.58;;;;;;;21.20;48.62;98232.56;1812896;78;22596;-62